sensor_id;sensor_type;location;lat;lon;timestamp;P1;durP1;ratioP1;P2;durP2;ratioP2
52186;SDS011;38161;53.020;6.598;2023-10-13T00:00:45;28.05;;;25.05;;
52186;SDS011;38161;53.020;6.598;2023-10-13T00:03:13;27.77;;;24.92;;
52186;SDS011;38161;53.020;6.598;2023-10-13T00:05:41;30.40;;;25.33;;
52186;SDS011;38161;53.020;6.598;2023-10-13T00:08:08;30.50;;;26.75;;
52186;SDS011;38161;53.020;6.598;2023-10-13T00:10:35;29.40;;;26.40;;
52186;SDS011;38161;53.020;6.598;2023-10-13T00:13:02;27.95;;;25.15;;
52186;SDS011;38161;53.020;6.598;2023-10-13T00:15:46;28.08;;;24.88;;
52186;SDS011;38161;53.020;6.598;2023-10-13T00:18:25;27.40;;;24.50;;
52186;SDS011;38161;53.020;6.598;2023-10-13T00:20:55;28.13;;;25.25;;
52186;SDS011;38161;53.020;6.598;2023-10-13T00:23:22;28.63;;;25.20;;
52186;SDS011;38161;53.020;6.598;2023-10-13T00:25:51;29.75;;;25.05;;
52186;SDS011;38161;53.020;6.598;2023-10-13T00:28:27;28.45;;;25.58;;
52186;SDS011;38161;53.020;6.598;2023-10-13T00:31:01;28.95;;;26.05;;
52186;SDS011;38161;53.020;6.598;2023-10-13T00:33:38;29.35;;;26.27;;
52186;SDS011;38161;53.020;6.598;2023-10-13T00:36:07;29.25;;;26.38;;
52186;SDS011;38161;53.020;6.598;2023-10-13T00:38:34;30.13;;;27.23;;
52186;SDS011;38161;53.020;6.598;2023-10-13T00:41:00;30.80;;;27.70;;
52186;SDS011;38161;53.020;6.598;2023-10-13T00:43:44;28.23;;;25.33;;
52186;SDS011;38161;53.020;6.598;2023-10-13T00:46:32;28.92;;;26.42;;
52186;SDS011;38161;53.020;6.598;2023-10-13T00:49:01;31.23;;;28.35;;
52186;SDS011;38161;53.020;6.598;2023-10-13T00:51:29;33.38;;;30.17;;
52186;SDS011;38161;53.020;6.598;2023-10-13T00:54:06;32.33;;;29.58;;
52186;SDS011;38161;53.020;6.598;2023-10-13T00:56:40;32.47;;;29.77;;
52186;SDS011;38161;53.020;6.598;2023-10-13T00:59:23;30.95;;;28.23;;
52186;SDS011;38161;53.020;6.598;2023-10-13T01:01:51;31.55;;;28.90;;
52186;SDS011;38161;53.020;6.598;2023-10-13T01:04:20;32.22;;;29.48;;
52186;SDS011;38161;53.020;6.598;2023-10-13T01:06:52;34.28;;;31.30;;
52186;SDS011;38161;53.020;6.598;2023-10-13T01:09:18;33.88;;;31.20;;
52186;SDS011;38161;53.020;6.598;2023-10-13T01:11:45;31.60;;;28.70;;
52186;SDS011;38161;53.020;6.598;2023-10-13T01:14:16;32.33;;;29.30;;
52186;SDS011;38161;53.020;6.598;2023-10-13T01:16:43;33.08;;;30.13;;
52186;SDS011;38161;53.020;6.598;2023-10-13T01:19:11;33.22;;;30.48;;
52186;SDS011;38161;53.020;6.598;2023-10-13T01:21:39;30.33;;;27.42;;
52186;SDS011;38161;53.020;6.598;2023-10-13T01:24:12;30.08;;;27.45;;
52186;SDS011;38161;53.020;6.598;2023-10-13T01:26:43;30.08;;;27.42;;
52186;SDS011;38161;53.020;6.598;2023-10-13T01:31:44;27.38;;;24.88;;
52186;SDS011;38161;53.020;6.598;2023-10-13T01:34:20;27.15;;;24.73;;
52186;SDS011;38161;53.020;6.598;2023-10-13T01:36:53;27.70;;;25.23;;
52186;SDS011;38161;53.020;6.598;2023-10-13T01:39:22;30.35;;;27.60;;
52186;SDS011;38161;53.020;6.598;2023-10-13T01:41:54;27.40;;;24.90;;
52186;SDS011;38161;53.020;6.598;2023-10-13T01:44:29;30.80;;;28.25;;
52186;SDS011;38161;53.020;6.598;2023-10-13T01:46:58;30.27;;;27.77;;
52186;SDS011;38161;53.020;6.598;2023-10-13T01:49:34;31.40;;;28.60;;
52186;SDS011;38161;53.020;6.598;2023-10-13T01:52:27;30.98;;;28.58;;
52186;SDS011;38161;53.020;6.598;2023-10-13T01:54:54;30.25;;;27.88;;
52186;SDS011;38161;53.020;6.598;2023-10-13T01:57:23;31.95;;;28.90;;
52186;SDS011;38161;53.020;6.598;2023-10-13T01:59:49;30.67;;;28.05;;
52186;SDS011;38161;53.020;6.598;2023-10-13T02:02:15;31.35;;;28.77;;
52186;SDS011;38161;53.020;6.598;2023-10-13T02:04:54;32.63;;;30.00;;
52186;SDS011;38161;53.020;6.598;2023-10-13T02:07:22;30.63;;;27.85;;
52186;SDS011;38161;53.020;6.598;2023-10-13T02:12:29;28.92;;;26.30;;
52186;SDS011;38161;53.020;6.598;2023-10-13T02:15:07;32.55;;;29.58;;
52186;SDS011;38161;53.020;6.598;2023-10-13T02:17:38;32.92;;;29.85;;
52186;SDS011;38161;53.020;6.598;2023-10-13T02:20:08;32.15;;;29.35;;
52186;SDS011;38161;53.020;6.598;2023-10-13T02:22:41;31.00;;;27.80;;
52186;SDS011;38161;53.020;6.598;2023-10-13T02:25:16;32.70;;;29.75;;
52186;SDS011;38161;53.020;6.598;2023-10-13T02:28:00;34.45;;;31.25;;
52186;SDS011;38161;53.020;6.598;2023-10-13T02:30:37;32.55;;;29.75;;
52186;SDS011;38161;53.020;6.598;2023-10-13T02:33:10;31.60;;;28.90;;
52186;SDS011;38161;53.020;6.598;2023-10-13T02:35:37;32.60;;;29.85;;
52186;SDS011;38161;53.020;6.598;2023-10-13T02:38:07;34.17;;;31.13;;
52186;SDS011;38161;53.020;6.598;2023-10-13T02:40:37;32.10;;;29.00;;
52186;SDS011;38161;53.020;6.598;2023-10-13T02:43:07;35.28;;;32.20;;
52186;SDS011;38161;53.020;6.598;2023-10-13T02:45:33;32.55;;;29.60;;
52186;SDS011;38161;53.020;6.598;2023-10-13T02:48:05;35.95;;;32.85;;
52186;SDS011;38161;53.020;6.598;2023-10-13T02:50:42;35.35;;;32.35;;
52186;SDS011;38161;53.020;6.598;2023-10-13T02:53:10;33.92;;;31.00;;
52186;SDS011;38161;53.020;6.598;2023-10-13T02:55:50;33.50;;;30.65;;
52186;SDS011;38161;53.020;6.598;2023-10-13T02:58:18;33.67;;;30.70;;
52186;SDS011;38161;53.020;6.598;2023-10-13T03:00:44;31.63;;;28.92;;
52186;SDS011;38161;53.020;6.598;2023-10-13T03:03:11;35.65;;;32.50;;
52186;SDS011;38161;53.020;6.598;2023-10-13T03:05:40;34.67;;;31.27;;
52186;SDS011;38161;53.020;6.598;2023-10-13T03:08:07;34.85;;;32.15;;
52186;SDS011;38161;53.020;6.598;2023-10-13T03:10:36;34.83;;;32.05;;
52186;SDS011;38161;53.020;6.598;2023-10-13T03:13:10;33.17;;;30.38;;
52186;SDS011;38161;53.020;6.598;2023-10-13T03:15:36;34.33;;;31.00;;
52186;SDS011;38161;53.020;6.598;2023-10-13T03:18:02;32.97;;;30.42;;
52186;SDS011;38161;53.020;6.598;2023-10-13T03:20:28;33.15;;;30.63;;
52186;SDS011;38161;53.020;6.598;2023-10-13T03:22:59;30.75;;;28.45;;
52186;SDS011;38161;53.020;6.598;2023-10-13T03:25:25;32.47;;;29.80;;
52186;SDS011;38161;53.020;6.598;2023-10-13T03:27:58;31.27;;;28.77;;
52186;SDS011;38161;53.020;6.598;2023-10-13T03:30:24;29.73;;;27.45;;
52186;SDS011;38161;53.020;6.598;2023-10-13T03:33:07;32.63;;;29.67;;
52186;SDS011;38161;53.020;6.598;2023-10-13T03:35:39;30.98;;;28.63;;
52186;SDS011;38161;53.020;6.598;2023-10-13T03:38:18;31.20;;;28.70;;
52186;SDS011;38161;53.020;6.598;2023-10-13T03:40:47;30.33;;;27.92;;
52186;SDS011;38161;53.020;6.598;2023-10-13T03:43:21;31.85;;;29.45;;
52186;SDS011;38161;53.020;6.598;2023-10-13T03:45:48;32.72;;;29.92;;
52186;SDS011;38161;53.020;6.598;2023-10-13T03:48:18;33.35;;;30.55;;
52186;SDS011;38161;53.020;6.598;2023-10-13T03:51:00;30.77;;;28.27;;
52186;SDS011;38161;53.020;6.598;2023-10-13T03:53:33;31.35;;;28.85;;
52186;SDS011;38161;53.020;6.598;2023-10-13T03:56:03;30.25;;;27.77;;
52186;SDS011;38161;53.020;6.598;2023-10-13T03:58:37;31.17;;;28.77;;
52186;SDS011;38161;53.020;6.598;2023-10-13T04:01:13;32.72;;;30.23;;
52186;SDS011;38161;53.020;6.598;2023-10-13T04:03:42;29.35;;;27.20;;
52186;SDS011;38161;53.020;6.598;2023-10-13T04:06:24;29.05;;;26.85;;
52186;SDS011;38161;53.020;6.598;2023-10-13T04:09:19;43.20;;;27.25;;
52186;SDS011;38161;53.020;6.598;2023-10-13T04:11:57;28.50;;;26.23;;
52186;SDS011;38161;53.020;6.598;2023-10-13T04:14:33;30.88;;;28.38;;
52186;SDS011;38161;53.020;6.598;2023-10-13T04:17:19;30.45;;;28.02;;
52186;SDS011;38161;53.020;6.598;2023-10-13T04:19:51;31.55;;;29.15;;
52186;SDS011;38161;53.020;6.598;2023-10-13T04:22:33;30.88;;;28.58;;
52186;SDS011;38161;53.020;6.598;2023-10-13T04:25:19;30.17;;;27.85;;
52186;SDS011;38161;53.020;6.598;2023-10-13T04:28:06;30.67;;;28.33;;
52186;SDS011;38161;53.020;6.598;2023-10-13T04:30:56;30.27;;;27.98;;
52186;SDS011;38161;53.020;6.598;2023-10-13T04:33:29;31.83;;;29.42;;
52186;SDS011;38161;53.020;6.598;2023-10-13T04:36:00;30.48;;;28.20;;
52186;SDS011;38161;53.020;6.598;2023-10-13T04:38:47;31.20;;;28.80;;
52186;SDS011;38161;53.020;6.598;2023-10-13T04:41:29;29.92;;;27.73;;
52186;SDS011;38161;53.020;6.598;2023-10-13T04:44:22;29.75;;;27.23;;
52186;SDS011;38161;53.020;6.598;2023-10-13T04:46:48;29.10;;;26.83;;
52186;SDS011;38161;53.020;6.598;2023-10-13T04:49:14;30.17;;;27.83;;
52186;SDS011;38161;53.020;6.598;2023-10-13T04:51:57;30.40;;;27.98;;
52186;SDS011;38161;53.020;6.598;2023-10-13T04:54:27;29.65;;;27.33;;
52186;SDS011;38161;53.020;6.598;2023-10-13T04:57:21;32.17;;;29.83;;
52186;SDS011;38161;53.020;6.598;2023-10-13T05:00:13;30.13;;;27.92;;
52186;SDS011;38161;53.020;6.598;2023-10-13T05:02:43;32.63;;;30.23;;
52186;SDS011;38161;53.020;6.598;2023-10-13T05:05:26;32.75;;;30.20;;
52186;SDS011;38161;53.020;6.598;2023-10-13T05:08:10;30.00;;;27.83;;
52186;SDS011;38161;53.020;6.598;2023-10-13T05:11:03;30.40;;;28.13;;
52186;SDS011;38161;53.020;6.598;2023-10-13T05:13:49;30.83;;;28.67;;
52186;SDS011;38161;53.020;6.598;2023-10-13T05:16:33;29.67;;;27.48;;
52186;SDS011;38161;53.020;6.598;2023-10-13T05:19:17;30.00;;;27.75;;
52186;SDS011;38161;53.020;6.598;2023-10-13T05:22:02;29.85;;;27.73;;
52186;SDS011;38161;53.020;6.598;2023-10-13T05:24:46;32.08;;;29.67;;
52186;SDS011;38161;53.020;6.598;2023-10-13T05:27:31;31.15;;;29.05;;
52186;SDS011;38161;53.020;6.598;2023-10-13T05:30:17;29.80;;;27.80;;
52186;SDS011;38161;53.020;6.598;2023-10-13T05:33:02;27.83;;;25.95;;
52186;SDS011;38161;53.020;6.598;2023-10-13T05:35:47;27.42;;;25.60;;
52186;SDS011;38161;53.020;6.598;2023-10-13T05:38:31;27.83;;;25.88;;
52186;SDS011;38161;53.020;6.598;2023-10-13T05:41:16;28.30;;;26.30;;
52186;SDS011;38161;53.020;6.598;2023-10-13T05:44:00;28.45;;;26.65;;
52186;SDS011;38161;53.020;6.598;2023-10-13T05:46:44;27.33;;;25.55;;
52186;SDS011;38161;53.020;6.598;2023-10-13T05:49:29;27.25;;;25.45;;
52186;SDS011;38161;53.020;6.598;2023-10-13T05:52:13;28.30;;;26.52;;
52186;SDS011;38161;53.020;6.598;2023-10-13T05:54:59;28.63;;;26.73;;
52186;SDS011;38161;53.020;6.598;2023-10-13T05:57:44;26.45;;;24.73;;
52186;SDS011;38161;53.020;6.598;2023-10-13T06:00:10;27.70;;;25.83;;
52186;SDS011;38161;53.020;6.598;2023-10-13T06:02:55;26.83;;;25.20;;
52186;SDS011;38161;53.020;6.598;2023-10-13T06:05:39;24.52;;;22.52;;
52186;SDS011;38161;53.020;6.598;2023-10-13T06:08:23;24.10;;;22.63;;
52186;SDS011;38161;53.020;6.598;2023-10-13T06:11:08;25.35;;;23.80;;
52186;SDS011;38161;53.020;6.598;2023-10-13T06:13:53;25.80;;;24.23;;
52186;SDS011;38161;53.020;6.598;2023-10-13T06:16:38;26.05;;;24.45;;
52186;SDS011;38161;53.020;6.598;2023-10-13T06:19:23;25.65;;;24.08;;
52186;SDS011;38161;53.020;6.598;2023-10-13T06:22:07;25.55;;;23.85;;
52186;SDS011;38161;53.020;6.598;2023-10-13T06:24:52;25.38;;;23.65;;
52186;SDS011;38161;53.020;6.598;2023-10-13T06:27:36;24.38;;;22.95;;
52186;SDS011;38161;53.020;6.598;2023-10-13T06:30:20;25.13;;;23.55;;
52186;SDS011;38161;53.020;6.598;2023-10-13T06:32:46;25.33;;;23.85;;
52186;SDS011;38161;53.020;6.598;2023-10-13T06:35:13;61.40;;;29.90;;
52186;SDS011;38161;53.020;6.598;2023-10-13T06:37:49;24.42;;;22.92;;
52186;SDS011;38161;53.020;6.598;2023-10-13T06:40:23;25.45;;;23.90;;
52186;SDS011;38161;53.020;6.598;2023-10-13T06:42:58;24.17;;;22.58;;
52186;SDS011;38161;53.020;6.598;2023-10-13T06:45:47;26.02;;;24.40;;
52186;SDS011;38161;53.020;6.598;2023-10-13T06:48:26;24.52;;;23.13;;
52186;SDS011;38161;53.020;6.598;2023-10-13T06:50:53;26.02;;;24.35;;
52186;SDS011;38161;53.020;6.598;2023-10-13T06:53:21;27.15;;;25.48;;
52186;SDS011;38161;53.020;6.598;2023-10-13T06:55:49;26.08;;;24.58;;
52186;SDS011;38161;53.020;6.598;2023-10-13T06:58:18;24.90;;;23.50;;
52186;SDS011;38161;53.020;6.598;2023-10-13T07:00:49;25.25;;;23.83;;
52186;SDS011;38161;53.020;6.598;2023-10-13T07:03:27;23.83;;;22.35;;
52186;SDS011;38161;53.020;6.598;2023-10-13T07:05:53;27.30;;;25.73;;
52186;SDS011;38161;53.020;6.598;2023-10-13T07:08:19;25.30;;;23.77;;
52186;SDS011;38161;53.020;6.598;2023-10-13T07:10:51;25.67;;;24.23;;
52186;SDS011;38161;53.020;6.598;2023-10-13T07:13:33;26.67;;;25.17;;
52186;SDS011;38161;53.020;6.598;2023-10-13T07:16:13;25.08;;;23.63;;
52186;SDS011;38161;53.020;6.598;2023-10-13T07:18:42;26.20;;;24.65;;
52186;SDS011;38161;53.020;6.598;2023-10-13T07:21:20;26.75;;;25.20;;
52186;SDS011;38161;53.020;6.598;2023-10-13T07:23:56;25.98;;;24.45;;
52186;SDS011;38161;53.020;6.598;2023-10-13T07:26:36;26.17;;;24.48;;
52186;SDS011;38161;53.020;6.598;2023-10-13T07:29:11;26.38;;;24.73;;
52186;SDS011;38161;53.020;6.598;2023-10-13T07:31:37;26.23;;;24.70;;
52186;SDS011;38161;53.020;6.598;2023-10-13T07:34:05;28.45;;;26.70;;
52186;SDS011;38161;53.020;6.598;2023-10-13T07:36:37;26.98;;;25.45;;
52186;SDS011;38161;53.020;6.598;2023-10-13T07:39:07;26.92;;;25.30;;
52186;SDS011;38161;53.020;6.598;2023-10-13T07:41:53;28.25;;;26.13;;
52186;SDS011;38161;53.020;6.598;2023-10-13T07:44:23;26.35;;;24.75;;
52186;SDS011;38161;53.020;6.598;2023-10-13T07:46:57;27.73;;;25.92;;
52186;SDS011;38161;53.020;6.598;2023-10-13T07:49:37;26.52;;;24.77;;
52186;SDS011;38161;53.020;6.598;2023-10-13T07:52:08;30.10;;;28.20;;
52186;SDS011;38161;53.020;6.598;2023-10-13T07:54:50;27.60;;;25.95;;
52186;SDS011;38161;53.020;6.598;2023-10-13T07:57:38;27.60;;;25.98;;
52186;SDS011;38161;53.020;6.598;2023-10-13T08:00:22;29.65;;;27.98;;
52186;SDS011;38161;53.020;6.598;2023-10-13T08:03:12;27.40;;;25.63;;
52186;SDS011;38161;53.020;6.598;2023-10-13T08:05:42;25.17;;;23.60;;
52186;SDS011;38161;53.020;6.598;2023-10-13T08:08:28;27.02;;;25.35;;
52186;SDS011;38161;53.020;6.598;2023-10-13T08:11:07;26.10;;;24.52;;
52186;SDS011;38161;53.020;6.598;2023-10-13T08:13:52;27.03;;;25.30;;
52186;SDS011;38161;53.020;6.598;2023-10-13T08:16:41;25.90;;;24.23;;
52186;SDS011;38161;53.020;6.598;2023-10-13T08:19:26;26.98;;;25.13;;
52186;SDS011;38161;53.020;6.598;2023-10-13T08:21:57;29.45;;;27.38;;
52186;SDS011;38161;53.020;6.598;2023-10-13T08:24:27;27.13;;;25.40;;
52186;SDS011;38161;53.020;6.598;2023-10-13T08:27:02;29.77;;;27.88;;
52186;SDS011;38161;53.020;6.598;2023-10-13T08:29:48;28.65;;;26.75;;
52186;SDS011;38161;53.020;6.598;2023-10-13T08:32:20;26.80;;;25.10;;
52186;SDS011;38161;53.020;6.598;2023-10-13T08:35:01;29.45;;;27.42;;
52186;SDS011;38161;53.020;6.598;2023-10-13T08:37:33;30.05;;;28.05;;
52186;SDS011;38161;53.020;6.598;2023-10-13T08:40:13;29.40;;;27.60;;
52186;SDS011;38161;53.020;6.598;2023-10-13T08:43:05;31.90;;;29.70;;
52186;SDS011;38161;53.020;6.598;2023-10-13T08:45:31;32.30;;;30.17;;
52186;SDS011;38161;53.020;6.598;2023-10-13T08:48:02;30.48;;;28.58;;
52186;SDS011;38161;53.020;6.598;2023-10-13T08:50:39;30.90;;;28.70;;
52186;SDS011;38161;53.020;6.598;2023-10-13T08:56:00;31.10;;;28.95;;
52186;SDS011;38161;53.020;6.598;2023-10-13T08:58:39;31.17;;;29.20;;
52186;SDS011;38161;53.020;6.598;2023-10-13T09:01:30;31.05;;;29.13;;
52186;SDS011;38161;53.020;6.598;2023-10-13T09:04:25;34.25;;;31.88;;
52186;SDS011;38161;53.020;6.598;2023-10-13T09:07:05;30.25;;;28.30;;
52186;SDS011;38161;53.020;6.598;2023-10-13T09:12:16;32.28;;;30.00;;
52186;SDS011;38161;53.020;6.598;2023-10-13T09:15:10;32.47;;;30.38;;
52186;SDS011;38161;53.020;6.598;2023-10-13T09:17:46;29.40;;;27.35;;
52186;SDS011;38161;53.020;6.598;2023-10-13T09:20:17;34.67;;;32.10;;
52186;SDS011;38161;53.020;6.598;2023-10-13T09:23:14;35.55;;;31.50;;
52186;SDS011;38161;53.020;6.598;2023-10-13T09:25:50;30.92;;;28.92;;
52186;SDS011;38161;53.020;6.598;2023-10-13T09:28:23;29.35;;;27.35;;
52186;SDS011;38161;53.020;6.598;2023-10-13T09:30:53;33.80;;;31.63;;
52186;SDS011;38161;53.020;6.598;2023-10-13T09:33:25;31.88;;;29.77;;
52186;SDS011;38161;53.020;6.598;2023-10-13T09:36:02;33.50;;;31.25;;
52186;SDS011;38161;53.020;6.598;2023-10-13T09:38:35;32.15;;;30.02;;
52186;SDS011;38161;53.020;6.598;2023-10-13T09:41:05;31.17;;;29.20;;
52186;SDS011;38161;53.020;6.598;2023-10-13T09:43:43;33.25;;;30.77;;
52186;SDS011;38161;53.020;6.598;2023-10-13T09:46:13;34.50;;;32.22;;
52186;SDS011;38161;53.020;6.598;2023-10-13T09:48:49;32.10;;;29.90;;
52186;SDS011;38161;53.020;6.598;2023-10-13T09:51:29;32.97;;;30.73;;
52186;SDS011;38161;53.020;6.598;2023-10-13T09:56:50;31.40;;;29.30;;
52186;SDS011;38161;53.020;6.598;2023-10-13T10:02:17;29.15;;;27.20;;
52186;SDS011;38161;53.020;6.598;2023-10-13T10:04:54;28.73;;;26.45;;
52186;SDS011;38161;53.020;6.598;2023-10-13T10:07:41;29.17;;;27.17;;
52186;SDS011;38161;53.020;6.598;2023-10-13T10:10:09;27.45;;;25.58;;
52186;SDS011;38161;53.020;6.598;2023-10-13T10:12:44;29.70;;;27.38;;
52186;SDS011;38161;53.020;6.598;2023-10-13T10:15:32;28.02;;;26.13;;
52186;SDS011;38161;53.020;6.598;2023-10-13T10:18:03;31.10;;;28.75;;
52186;SDS011;38161;53.020;6.598;2023-10-13T10:20:36;32.60;;;29.65;;
52186;SDS011;38161;53.020;6.598;2023-10-13T10:23:05;29.08;;;26.92;;
52186;SDS011;38161;53.020;6.598;2023-10-13T10:25:39;28.63;;;26.70;;
52186;SDS011;38161;53.020;6.598;2023-10-13T10:28:10;32.28;;;30.13;;
52186;SDS011;38161;53.020;6.598;2023-10-13T10:30:41;29.25;;;27.08;;
52186;SDS011;38161;53.020;6.598;2023-10-13T10:33:09;28.98;;;26.85;;
52186;SDS011;38161;53.020;6.598;2023-10-13T10:35:44;29.95;;;28.10;;
52186;SDS011;38161;53.020;6.598;2023-10-13T10:38:13;31.45;;;29.35;;
52186;SDS011;38161;53.020;6.598;2023-10-13T10:40:49;29.98;;;28.00;;
52186;SDS011;38161;53.020;6.598;2023-10-13T10:43:27;27.60;;;25.58;;
52186;SDS011;38161;53.020;6.598;2023-10-13T10:46:11;26.42;;;24.70;;
52186;SDS011;38161;53.020;6.598;2023-10-13T10:48:43;29.23;;;27.00;;
52186;SDS011;38161;53.020;6.598;2023-10-13T10:51:13;30.15;;;28.00;;
52186;SDS011;38161;53.020;6.598;2023-10-13T10:53:50;28.73;;;26.83;;
52186;SDS011;38161;53.020;6.598;2023-10-13T10:56:18;28.13;;;26.23;;
52186;SDS011;38161;53.020;6.598;2023-10-13T10:59:03;27.55;;;25.63;;
52186;SDS011;38161;53.020;6.598;2023-10-13T11:01:44;28.20;;;26.10;;
52186;SDS011;38161;53.020;6.598;2023-10-13T11:04:16;27.65;;;25.85;;
52186;SDS011;38161;53.020;6.598;2023-10-13T11:06:52;28.58;;;26.67;;
52186;SDS011;38161;53.020;6.598;2023-10-13T11:09:35;29.40;;;27.15;;
52186;SDS011;38161;53.020;6.598;2023-10-13T11:12:14;28.10;;;26.13;;
52186;SDS011;38161;53.020;6.598;2023-10-13T11:14:44;27.92;;;25.92;;
52186;SDS011;38161;53.020;6.598;2023-10-13T11:17:19;26.80;;;25.02;;
52186;SDS011;38161;53.020;6.598;2023-10-13T11:20:16;27.95;;;25.65;;
52186;SDS011;38161;53.020;6.598;2023-10-13T11:22:47;29.48;;;27.35;;
52186;SDS011;38161;53.020;6.598;2023-10-13T11:25:23;27.85;;;25.35;;
52186;SDS011;38161;53.020;6.598;2023-10-13T11:27:58;25.00;;;23.15;;
52186;SDS011;38161;53.020;6.598;2023-10-13T11:30:42;70.22;;;33.22;;
52186;SDS011;38161;53.020;6.598;2023-10-13T11:33:16;24.67;;;22.70;;
52186;SDS011;38161;53.020;6.598;2023-10-13T11:35:56;24.40;;;22.77;;
52186;SDS011;38161;53.020;6.598;2023-10-13T11:38:28;26.35;;;24.02;;
52186;SDS011;38161;53.020;6.598;2023-10-13T11:41:08;22.67;;;20.92;;
52186;SDS011;38161;53.020;6.598;2023-10-13T11:43:38;295.33;;;49.20;;
52186;SDS011;38161;53.020;6.598;2023-10-13T11:46:12;24.42;;;22.67;;
52186;SDS011;38161;53.020;6.598;2023-10-13T11:48:40;22.35;;;20.75;;
52186;SDS011;38161;53.020;6.598;2023-10-13T11:51:07;22.50;;;20.95;;
52186;SDS011;38161;53.020;6.598;2023-10-13T11:53:42;23.80;;;21.90;;
52186;SDS011;38161;53.020;6.598;2023-10-13T11:56:18;23.02;;;21.25;;
52186;SDS011;38161;53.020;6.598;2023-10-13T11:58:49;21.63;;;19.75;;
52186;SDS011;38161;53.020;6.598;2023-10-13T12:01:16;21.83;;;20.25;;
52186;SDS011;38161;53.020;6.598;2023-10-13T12:03:44;24.20;;;22.25;;
52186;SDS011;38161;53.020;6.598;2023-10-13T12:06:30;23.65;;;22.02;;
52186;SDS011;38161;53.020;6.598;2023-10-13T12:09:03;21.73;;;19.92;;
52186;SDS011;38161;53.020;6.598;2023-10-13T12:11:46;21.23;;;19.55;;
52186;SDS011;38161;53.020;6.598;2023-10-13T12:14:15;21.02;;;19.42;;
52186;SDS011;38161;53.020;6.598;2023-10-13T12:16:43;22.92;;;21.17;;
52186;SDS011;38161;53.020;6.598;2023-10-13T12:19:15;21.38;;;19.58;;
52186;SDS011;38161;53.020;6.598;2023-10-13T12:21:42;24.23;;;22.48;;
52186;SDS011;38161;53.020;6.598;2023-10-13T12:24:09;22.48;;;20.63;;
52186;SDS011;38161;53.020;6.598;2023-10-13T12:26:50;21.90;;;20.30;;
52186;SDS011;38161;53.020;6.598;2023-10-13T12:29:22;23.63;;;21.63;;
52186;SDS011;38161;53.020;6.598;2023-10-13T12:31:54;24.63;;;22.73;;
52186;SDS011;38161;53.020;6.598;2023-10-13T12:34:34;24.83;;;22.83;;
52186;SDS011;38161;53.020;6.598;2023-10-13T12:37:19;22.95;;;20.85;;
52186;SDS011;38161;53.020;6.598;2023-10-13T12:40:07;22.30;;;20.70;;
52186;SDS011;38161;53.020;6.598;2023-10-13T12:42:52;23.45;;;21.65;;
52186;SDS011;38161;53.020;6.598;2023-10-13T12:48:27;22.55;;;20.85;;
52186;SDS011;38161;53.020;6.598;2023-10-13T12:51:12;23.45;;;21.50;;
52186;SDS011;38161;53.020;6.598;2023-10-13T12:53:46;21.77;;;20.02;;
52186;SDS011;38161;53.020;6.598;2023-10-13T12:56:15;22.27;;;20.52;;
52186;SDS011;38161;53.020;6.598;2023-10-13T12:58:42;21.85;;;19.92;;
52186;SDS011;38161;53.020;6.598;2023-10-13T13:01:18;22.00;;;20.38;;
52186;SDS011;38161;53.020;6.598;2023-10-13T13:03:47;22.20;;;20.50;;
52186;SDS011;38161;53.020;6.598;2023-10-13T13:06:18;22.98;;;21.20;;
52186;SDS011;38161;53.020;6.598;2023-10-13T13:08:54;19.73;;;18.23;;
52186;SDS011;38161;53.020;6.598;2023-10-13T13:11:24;20.77;;;19.27;;
52186;SDS011;38161;53.020;6.598;2023-10-13T13:13:50;20.23;;;18.35;;
52186;SDS011;38161;53.020;6.598;2023-10-13T13:16:17;21.30;;;19.50;;
52186;SDS011;38161;53.020;6.598;2023-10-13T13:18:44;20.50;;;18.70;;
52186;SDS011;38161;53.020;6.598;2023-10-13T13:21:11;21.77;;;19.98;;
52186;SDS011;38161;53.020;6.598;2023-10-13T13:23:46;20.85;;;19.15;;
52186;SDS011;38161;53.020;6.598;2023-10-13T13:26:12;21.45;;;19.65;;
52186;SDS011;38161;53.020;6.598;2023-10-13T13:28:42;21.98;;;20.15;;
52186;SDS011;38161;53.020;6.598;2023-10-13T13:31:09;21.58;;;19.85;;
52186;SDS011;38161;53.020;6.598;2023-10-13T13:33:38;21.15;;;19.60;;
52186;SDS011;38161;53.020;6.598;2023-10-13T13:36:08;21.55;;;19.60;;
52186;SDS011;38161;53.020;6.598;2023-10-13T13:38:40;21.50;;;19.95;;
52186;SDS011;38161;53.020;6.598;2023-10-13T13:41:12;21.25;;;19.58;;
52186;SDS011;38161;53.020;6.598;2023-10-13T13:43:42;21.02;;;19.02;;
52186;SDS011;38161;53.020;6.598;2023-10-13T13:46:22;21.65;;;19.65;;
52186;SDS011;38161;53.020;6.598;2023-10-13T13:48:59;20.23;;;18.52;;
52186;SDS011;38161;53.020;6.598;2023-10-13T13:51:27;21.75;;;19.95;;
52186;SDS011;38161;53.020;6.598;2023-10-13T13:53:57;20.02;;;18.38;;
52186;SDS011;38161;53.020;6.598;2023-10-13T13:56:24;22.17;;;20.38;;
52186;SDS011;38161;53.020;6.598;2023-10-13T13:58:52;21.13;;;19.30;;
52186;SDS011;38161;53.020;6.598;2023-10-13T14:01:19;21.10;;;19.25;;
52186;SDS011;38161;53.020;6.598;2023-10-13T14:03:54;22.63;;;20.92;;
52186;SDS011;38161;53.020;6.598;2023-10-13T14:06:28;20.88;;;19.13;;
52186;SDS011;38161;53.020;6.598;2023-10-13T14:11:22;19.90;;;18.25;;
52186;SDS011;38161;53.020;6.598;2023-10-13T14:14:15;20.05;;;18.23;;
52186;SDS011;38161;53.020;6.598;2023-10-13T14:16:50;23.45;;;21.63;;
52186;SDS011;38161;53.020;6.598;2023-10-13T14:19:17;21.27;;;19.35;;
52186;SDS011;38161;53.020;6.598;2023-10-13T14:21:55;20.83;;;19.27;;
52186;SDS011;38161;53.020;6.598;2023-10-13T14:24:21;77.85;;;28.40;;
52186;SDS011;38161;53.020;6.598;2023-10-13T14:26:58;20.98;;;18.92;;
52186;SDS011;38161;53.020;6.598;2023-10-13T14:29:44;20.33;;;18.75;;
52186;SDS011;38161;53.020;6.598;2023-10-13T14:32:11;23.67;;;21.98;;
52186;SDS011;38161;53.020;6.598;2023-10-13T14:34:40;21.20;;;19.23;;
52186;SDS011;38161;53.020;6.598;2023-10-13T14:37:07;22.92;;;20.50;;
52186;SDS011;38161;53.020;6.598;2023-10-13T14:39:37;21.98;;;19.67;;
52186;SDS011;38161;53.020;6.598;2023-10-13T14:42:06;22.73;;;20.85;;
52186;SDS011;38161;53.020;6.598;2023-10-13T14:44:33;22.20;;;20.45;;
52186;SDS011;38161;53.020;6.598;2023-10-13T14:47:00;21.35;;;19.35;;
52186;SDS011;38161;53.020;6.598;2023-10-13T14:49:27;22.20;;;20.15;;
52186;SDS011;38161;53.020;6.598;2023-10-13T14:51:53;35.20;;;22.42;;
52186;SDS011;38161;53.020;6.598;2023-10-13T14:54:23;21.27;;;19.42;;
52186;SDS011;38161;53.020;6.598;2023-10-13T14:57:01;21.95;;;20.13;;
52186;SDS011;38161;53.020;6.598;2023-10-13T14:59:28;21.40;;;19.48;;
52186;SDS011;38161;53.020;6.598;2023-10-13T15:02:04;21.10;;;19.45;;
52186;SDS011;38161;53.020;6.598;2023-10-13T15:04:30;21.77;;;19.80;;
52186;SDS011;38161;53.020;6.598;2023-10-13T15:07:00;19.65;;;18.13;;
52186;SDS011;38161;53.020;6.598;2023-10-13T15:09:31;21.38;;;19.30;;
52186;SDS011;38161;53.020;6.598;2023-10-13T15:11:57;21.27;;;19.50;;
52186;SDS011;38161;53.020;6.598;2023-10-13T15:14:24;21.98;;;20.00;;
52186;SDS011;38161;53.020;6.598;2023-10-13T15:16:50;21.65;;;19.75;;
52186;SDS011;38161;53.020;6.598;2023-10-13T15:19:17;25.00;;;22.60;;
52186;SDS011;38161;53.020;6.598;2023-10-13T15:21:43;21.58;;;19.92;;
52186;SDS011;38161;53.020;6.598;2023-10-13T15:24:14;23.52;;;21.60;;
52186;SDS011;38161;53.020;6.598;2023-10-13T15:26:46;23.30;;;21.42;;